createdAt,value
2019-03-12T00:00:06.214Z,999.69
2019-03-12T00:02:05.821Z,999.91
2019-03-12T00:04:06.042Z,1000.30
2019-03-12T00:06:05.635Z,1000.06
2019-03-12T00:08:05.651Z,1000.10
2019-03-12T00:10:05.662Z,1000.68
2019-03-12T00:12:05.670Z,1000.63
2019-03-12T00:14:05.718Z,1000.38
2019-03-12T00:16:05.645Z,1000.52
2019-03-12T00:18:05.604Z,1000.65
2019-03-12T00:20:05.817Z,1000.84
2019-03-12T00:22:05.837Z,1000.76
2019-03-12T00:24:05.638Z,1001.12
2019-03-12T00:26:05.698Z,1000.73
2019-03-12T00:28:05.767Z,1000.61
2019-03-12T00:30:05.656Z,1000.54
2019-03-12T00:32:05.802Z,1000.63
2019-03-12T00:34:05.612Z,1000.95
2019-03-12T00:36:05.803Z,1000.68
2019-03-12T00:38:05.727Z,1000.94
2019-03-12T00:40:05.480Z,1001.18
2019-03-12T00:42:05.649Z,1000.89
2019-03-12T00:44:05.754Z,1001.03
2019-03-12T00:46:05.814Z,1000.69
2019-03-12T00:48:05.782Z,1000.88
2019-03-12T00:50:05.898Z,1000.99
2019-03-12T00:52:05.800Z,1000.82
2019-03-12T00:54:05.823Z,1000.72
2019-03-12T00:56:05.645Z,1001.13
2019-03-12T00:58:05.951Z,1000.90
2019-03-12T01:00:05.953Z,1000.75
2019-03-12T01:02:05.904Z,1001.30
2019-03-12T01:04:05.657Z,1001.28
2019-03-12T01:06:05.701Z,1001.00
2019-03-12T01:08:05.717Z,1000.88
2019-03-12T01:10:05.681Z,1000.83
2019-03-12T01:12:05.683Z,1001.15
2019-03-12T01:14:05.954Z,1000.85
2019-03-12T01:16:05.840Z,1001.08
2019-03-12T01:18:05.718Z,1001.03
2019-03-12T01:20:05.794Z,1001.29
2019-03-12T01:22:05.733Z,1000.90
2019-03-12T01:24:05.669Z,1001.21
2019-03-12T01:26:05.754Z,1001.19
2019-03-12T01:28:06.013Z,1001.29
2019-03-12T01:30:05.711Z,1000.87
2019-03-12T01:32:05.733Z,1001.24
2019-03-12T01:34:05.680Z,1000.96
2019-03-12T01:36:05.753Z,1001.08
2019-03-12T01:38:05.867Z,1001.56
2019-03-12T01:40:05.887Z,1001.14
2019-03-12T01:42:05.898Z,1001.22
2019-03-12T01:44:06.002Z,1001.23
2019-03-12T01:46:05.738Z,1001.40
2019-03-12T01:48:05.924Z,1001.05
2019-03-12T01:50:06.042Z,1001.29
2019-03-12T01:52:05.742Z,1001.39
2019-03-12T01:54:05.951Z,1001.41
2019-03-12T01:56:05.897Z,1001.58
2019-03-12T01:58:05.697Z,1000.98
2019-03-12T02:00:05.888Z,1001.41
2019-03-12T02:02:06.112Z,1001.28
2019-03-12T02:04:06.217Z,1001.25
2019-03-12T02:06:05.603Z,1001.32
2019-03-12T02:08:05.836Z,1001.35
2019-03-12T02:10:05.859Z,1001.38
2019-03-12T02:12:05.862Z,1001.05
2019-03-12T02:14:05.688Z,1001.07
2019-03-12T02:16:05.805Z,1001.33
2019-03-12T02:18:05.894Z,1000.84
2019-03-12T02:20:06.009Z,1001.22
2019-03-12T02:22:05.814Z,1001.14
2019-03-12T02:24:05.826Z,1001.21
2019-03-12T02:26:05.843Z,1001.12
2019-03-12T02:28:05.866Z,1001.17
2019-03-12T02:30:05.907Z,1001.13
2019-03-12T02:32:05.942Z,1001.08
2019-03-12T02:34:06.095Z,1000.97
2019-03-12T02:36:05.891Z,1000.96
2019-03-12T02:38:05.844Z,1000.98
2019-03-12T02:40:05.921Z,1001.13
2019-03-12T02:42:05.933Z,1001.03
2019-03-12T02:44:05.769Z,1001.21
2019-03-12T02:46:05.959Z,1001.47
2019-03-12T02:48:05.966Z,1001.39
2019-03-12T02:50:05.638Z,1001.43
2019-03-12T02:52:05.892Z,1001.45
2019-03-12T02:54:05.897Z,1001.10
2019-03-12T02:56:06.217Z,1001.28
2019-03-12T02:58:05.931Z,1000.94
2019-03-12T03:00:05.627Z,1001.24
2019-03-12T03:02:05.939Z,1001.07
2019-03-12T03:04:05.914Z,1000.76
2019-03-12T03:06:05.755Z,1000.64
2019-03-12T03:08:05.924Z,1000.68
2019-03-12T03:10:05.804Z,1000.89
2019-03-12T03:12:05.868Z,1000.96
2019-03-12T03:14:05.919Z,1001.31
2019-03-12T03:16:05.861Z,1000.99
2019-03-12T03:18:05.941Z,1001.51
2019-03-12T03:20:05.940Z,1001.39
2019-03-12T03:22:05.895Z,1001.51
2019-03-12T03:24:05.768Z,1001.14
2019-03-12T03:26:05.980Z,1001.28
2019-03-12T03:28:05.925Z,1001.07
2019-03-12T03:30:05.871Z,1001.20
2019-03-12T03:32:05.839Z,1001.15
2019-03-12T03:34:05.926Z,1001.01
2019-03-12T03:36:05.938Z,1000.85
2019-03-12T03:38:05.547Z,1000.95
2019-03-12T03:40:06.068Z,1000.75
2019-03-12T03:42:05.968Z,1000.71
2019-03-12T03:44:05.981Z,1001.01
2019-03-12T03:46:06.001Z,1000.89
2019-03-12T03:48:05.956Z,1001.15
2019-03-12T03:50:05.959Z,1001.10
2019-03-12T03:52:05.875Z,1001.00
2019-03-12T03:54:06.037Z,1000.99
2019-03-12T03:56:06.052Z,1001.04
2019-03-12T03:58:05.965Z,1001.01
2019-03-12T04:00:05.979Z,1001.21
2019-03-12T04:02:05.837Z,1000.64
2019-03-12T04:04:05.893Z,1000.75
2019-03-12T04:06:05.906Z,1000.75
2019-03-12T04:08:06.022Z,1001.14
2019-03-12T04:10:05.835Z,1000.74
2019-03-12T04:12:05.954Z,1000.68
2019-03-12T04:14:05.947Z,1000.54
2019-03-12T04:16:05.893Z,1000.89
2019-03-12T04:18:06.076Z,1001.05
2019-03-12T04:20:06.397Z,1000.83
2019-03-12T04:22:05.991Z,1000.76
2019-03-12T04:24:06.008Z,1000.93
2019-03-12T04:26:06.020Z,1000.98
2019-03-12T04:28:06.037Z,1001.06
2019-03-12T04:30:05.800Z,1000.92
2019-03-12T04:32:06.054Z,1000.93
2019-03-12T04:34:06.200Z,1000.78
2019-03-12T04:36:05.883Z,1001.12
2019-03-12T04:38:07.230Z,1000.64
2019-03-12T04:40:05.816Z,1000.73
2019-03-12T04:42:06.117Z,1000.59
2019-03-12T04:44:05.880Z,1000.96
2019-03-12T04:46:06.138Z,1000.76
2019-03-12T04:48:05.887Z,1000.92
2019-03-12T04:50:05.958Z,1000.51
2019-03-12T04:52:05.970Z,1000.86
2019-03-12T04:54:05.839Z,1000.58
2019-03-12T04:56:05.889Z,1000.98
2019-03-12T04:58:06.102Z,1000.86
2019-03-12T05:00:05.870Z,1000.74
2019-03-12T05:02:05.918Z,1000.37
2019-03-12T05:04:05.838Z,1000.53
2019-03-12T05:06:06.047Z,1000.76
2019-03-12T05:08:06.054Z,1000.55
2019-03-12T05:10:05.643Z,1000.48
2019-03-12T05:12:05.983Z,1000.54
2019-03-12T05:14:05.984Z,1000.62
2019-03-12T05:16:06.118Z,1000.41
2019-03-12T05:18:06.115Z,1000.69
2019-03-12T05:20:06.128Z,1000.49
2019-03-12T05:22:05.932Z,1000.53
2019-03-12T05:24:05.913Z,1000.56
2019-03-12T05:26:05.894Z,1000.49
2019-03-12T05:28:05.996Z,1000.79
2019-03-12T05:30:06.031Z,1000.61
2019-03-12T05:32:05.990Z,1000.34
2019-03-12T05:34:06.008Z,1000.54
2019-03-12T05:36:06.022Z,1000.58
2019-03-12T05:38:06.127Z,1000.43
2019-03-12T05:40:05.948Z,1000.46
2019-03-12T05:42:05.881Z,1000.38
2019-03-12T05:44:06.167Z,1000.32
2019-03-12T05:46:05.872Z,1000.33
2019-03-12T05:48:05.926Z,1000.02
2019-03-12T05:50:05.993Z,1000.26
2019-03-12T05:52:06.105Z,1000.25
2019-03-12T05:54:05.968Z,1000.30
2019-03-12T05:56:06.053Z,1000.23
2019-03-12T05:58:06.161Z,1000.49
2019-03-12T06:00:05.943Z,1000.48
2019-03-12T06:02:06.176Z,1000.44
2019-03-12T06:04:05.970Z,1000.18
2019-03-12T06:06:06.068Z,1000.65
2019-03-12T06:08:06.023Z,1000.19
2019-03-12T06:10:06.118Z,1000.28
2019-03-12T06:12:06.113Z,1000.31
2019-03-12T06:14:05.928Z,1000.30
2019-03-12T06:16:06.080Z,1000.37
2019-03-12T06:18:06.155Z,1000.48
2019-03-12T06:20:06.210Z,1000.06
2019-03-12T06:22:06.082Z,1000.09
2019-03-12T06:24:05.942Z,1000.54
2019-03-12T06:26:06.002Z,1000.56
2019-03-12T06:28:06.113Z,1000.49
2019-03-12T06:30:06.146Z,1000.34
2019-03-12T06:32:06.437Z,1000.20
2019-03-12T06:34:06.292Z,1000.57
2019-03-12T06:36:06.461Z,1000.30
2019-03-12T06:38:06.071Z,1000.26
2019-03-12T06:40:06.087Z,1000.23
2019-03-12T06:42:07.942Z,1000.25
2019-03-12T06:44:05.985Z,1000.38
2019-03-12T06:46:06.109Z,1000.36
2019-03-12T06:48:06.173Z,1000.46
2019-03-12T06:50:06.037Z,1000.31
2019-03-12T06:52:06.383Z,1000.02
2019-03-12T06:54:05.959Z,999.99
2019-03-12T06:56:06.167Z,1000.23
2019-03-12T06:58:06.053Z,999.72
2019-03-12T07:00:06.094Z,999.89
2019-03-12T07:02:06.208Z,999.85
2019-03-12T07:04:06.365Z,1000.00
2019-03-12T07:06:05.791Z,999.82
2019-03-12T07:08:06.437Z,999.91
2019-03-12T07:10:06.051Z,999.88
2019-03-12T07:12:06.672Z,999.91
2019-03-12T07:14:06.175Z,999.89
2019-03-12T07:16:06.394Z,1000.05
2019-03-12T07:18:06.254Z,999.84
2019-03-12T07:20:06.213Z,999.96
2019-03-12T07:22:05.908Z,999.48
2019-03-12T07:24:06.429Z,999.55
2019-03-12T07:26:06.252Z,999.92
2019-03-12T07:28:06.154Z,999.53
2019-03-12T07:30:06.063Z,999.66
2019-03-12T07:32:05.924Z,999.78
2019-03-12T07:34:06.082Z,999.31
2019-03-12T07:36:06.214Z,999.57
2019-03-12T07:38:06.109Z,999.35
2019-03-12T07:40:06.216Z,999.25
2019-03-12T07:42:06.232Z,999.56
2019-03-12T07:44:06.167Z,999.33
2019-03-12T07:46:06.137Z,999.11
2019-03-12T07:48:05.948Z,999.09
2019-03-12T07:50:06.275Z,999.09
2019-03-12T07:52:08.614Z,999.17
2019-03-12T07:54:06.207Z,999.14
2019-03-12T07:56:06.113Z,998.88
2019-03-12T07:58:06.003Z,998.92
2019-03-12T08:00:06.014Z,998.91
2019-03-12T08:02:06.026Z,998.78
2019-03-12T08:04:06.152Z,999.17
2019-03-12T08:06:06.069Z,998.77
2019-03-12T08:08:06.176Z,998.75
2019-03-12T08:10:06.190Z,998.92
2019-03-12T08:12:06.411Z,998.93
2019-03-12T08:14:06.086Z,998.85
2019-03-12T08:16:06.132Z,998.73
2019-03-12T08:18:06.449Z,998.77
2019-03-12T08:20:06.253Z,998.53
2019-03-12T08:22:06.139Z,998.67
2019-03-12T08:24:05.964Z,998.29
2019-03-12T08:26:06.047Z,998.53
2019-03-12T08:28:06.187Z,998.16
2019-03-12T08:30:06.416Z,998.50
2019-03-12T08:32:06.414Z,998.23
2019-03-12T08:34:06.236Z,998.22
2019-03-12T08:36:06.241Z,998.07
2019-03-12T08:38:06.155Z,998.12
2019-03-12T08:40:06.272Z,997.80
2019-03-12T08:42:06.477Z,998.14
2019-03-12T08:44:06.171Z,997.90
2019-03-12T08:46:06.190Z,997.97
2019-03-12T08:48:06.317Z,997.74
2019-03-12T08:50:06.129Z,997.87
2019-03-12T08:52:06.152Z,997.90
2019-03-12T08:54:06.038Z,997.87
2019-03-12T08:56:06.351Z,997.82
2019-03-12T08:58:06.259Z,997.55
2019-03-12T09:00:06.184Z,997.83
2019-03-12T09:02:06.391Z,997.64
2019-03-12T09:04:06.321Z,997.78
2019-03-12T09:06:06.347Z,997.50
2019-03-12T09:08:06.327Z,997.56
2019-03-12T09:10:06.083Z,997.69
2019-03-12T09:12:06.551Z,997.66
2019-03-12T09:14:06.252Z,997.43
2019-03-12T09:16:06.233Z,997.48
2019-03-12T09:18:06.382Z,997.46
2019-03-12T09:20:06.175Z,997.47
2019-03-12T09:22:06.294Z,997.29
2019-03-12T09:24:06.414Z,997.51
2019-03-12T09:26:06.458Z,997.36
2019-03-12T09:28:06.228Z,997.21
2019-03-12T09:30:06.523Z,997.53
2019-03-12T09:32:06.231Z,997.17
2019-03-12T09:34:06.165Z,997.38
2019-03-12T09:36:06.357Z,996.89
2019-03-12T09:38:06.292Z,996.98
2019-03-12T09:40:06.295Z,996.89
2019-03-12T09:42:06.236Z,997.06
2019-03-12T09:44:06.219Z,996.86
2019-03-12T09:46:06.332Z,996.62
2019-03-12T09:48:06.639Z,996.60
2019-03-12T09:50:06.462Z,996.59
2019-03-12T09:52:06.682Z,996.49
2019-03-12T09:54:06.124Z,996.96
2019-03-12T09:56:06.364Z,996.68
2019-03-12T09:58:06.402Z,996.50
2019-03-12T10:00:15.414Z,996.09
2019-03-12T10:02:06.297Z,996.13
2019-03-12T10:04:06.342Z,996.13
2019-03-12T10:06:06.396Z,996.40
2019-03-12T10:08:06.470Z,996.44
2019-03-12T10:10:06.475Z,996.18
2019-03-12T10:12:06.240Z,996.42
2019-03-12T10:14:06.379Z,996.25
2019-03-12T10:16:06.514Z,996.30
2019-03-12T10:18:06.429Z,996.09
2019-03-12T10:20:06.438Z,995.93
2019-03-12T10:22:06.236Z,996.25
2019-03-12T10:24:06.339Z,995.77
2019-03-12T10:26:06.515Z,995.83
2019-03-12T10:28:06.246Z,995.63
2019-03-12T10:30:06.483Z,995.78
2019-03-12T10:32:09.267Z,995.70
2019-03-12T10:34:06.180Z,995.90
2019-03-12T10:36:09.599Z,995.70
2019-03-12T10:38:06.635Z,995.83
2019-03-12T10:40:09.209Z,995.47
2019-03-12T10:42:06.352Z,995.80
2019-03-12T10:44:09.342Z,995.55
2019-03-12T10:46:06.201Z,995.98
2019-03-12T10:48:06.393Z,995.25
2019-03-12T10:50:06.504Z,995.07
2019-03-12T10:52:06.391Z,995.50
2019-03-12T10:54:06.645Z,995.30
2019-03-12T10:56:06.542Z,995.18
2019-03-12T10:58:06.443Z,995.51
2019-03-12T11:00:06.461Z,995.39
2019-03-12T11:02:06.144Z,995.30
2019-03-12T11:04:06.376Z,995.20
2019-03-12T11:06:06.288Z,995.42
2019-03-12T11:08:06.939Z,994.84
2019-03-12T11:10:06.439Z,995.25
2019-03-12T11:12:06.359Z,994.94
2019-03-12T11:14:06.439Z,995.23
2019-03-12T11:16:06.352Z,994.92
2019-03-12T11:18:06.458Z,994.95
2019-03-12T11:20:06.368Z,994.58
2019-03-12T11:22:06.390Z,994.72
2019-03-12T11:24:06.409Z,994.60
2019-03-12T11:26:06.504Z,994.83
2019-03-12T11:28:06.515Z,994.69
2019-03-12T11:30:06.528Z,994.46
2019-03-12T11:32:06.441Z,994.45
2019-03-12T11:34:06.337Z,994.63
2019-03-12T11:36:06.539Z,994.35
2019-03-12T11:38:06.666Z,994.29
2019-03-12T11:40:06.486Z,994.02
2019-03-12T11:42:06.599Z,994.33
2019-03-12T11:44:06.617Z,994.00
2019-03-12T11:46:06.731Z,994.17
2019-03-12T11:48:06.133Z,993.95
2019-03-12T11:50:06.521Z,994.24
2019-03-12T11:52:09.529Z,993.94
2019-03-12T11:54:06.469Z,993.81
2019-03-12T11:56:06.680Z,993.96
2019-03-12T11:58:06.616Z,993.80
2019-03-12T12:00:06.502Z,993.88
2019-03-12T12:02:06.404Z,993.86
2019-03-12T12:04:06.522Z,993.98
2019-03-12T12:06:06.322Z,993.50
2019-03-12T12:08:06.579Z,993.53
2019-03-12T12:10:06.574Z,993.91
2019-03-12T12:12:06.561Z,993.57
2019-03-12T12:14:06.577Z,993.51
2019-03-12T12:16:06.250Z,993.43
2019-03-12T12:18:06.533Z,993.21
2019-03-12T12:20:06.509Z,993.47
2019-03-12T12:22:06.627Z,993.46
2019-03-12T12:24:06.554Z,993.09
2019-03-12T12:26:06.298Z,993.00
2019-03-12T12:28:06.365Z,993.05
2019-03-12T12:30:06.570Z,993.03
2019-03-12T12:32:06.482Z,992.87
2019-03-12T12:34:06.495Z,992.80
2019-03-12T12:36:06.565Z,992.74
2019-03-12T12:38:06.625Z,992.39
2019-03-12T12:40:06.632Z,992.55
2019-03-12T12:42:06.418Z,992.61
2019-03-12T12:44:06.545Z,992.25
2019-03-12T12:46:06.569Z,992.50
2019-03-12T12:48:06.339Z,992.31
2019-03-12T12:50:06.538Z,992.51
2019-03-12T12:52:06.708Z,992.26
2019-03-12T12:54:09.495Z,992.35
2019-03-12T12:56:06.547Z,992.48
2019-03-12T12:58:06.599Z,992.08
2019-03-12T13:00:06.580Z,992.28
2019-03-12T13:02:06.856Z,992.17
2019-03-12T13:04:06.491Z,992.10
2019-03-12T13:06:06.813Z,992.07
2019-03-12T13:08:06.791Z,992.23
2019-03-12T13:10:06.710Z,991.82
2019-03-12T13:12:06.618Z,991.86
2019-03-12T13:14:06.621Z,991.89
2019-03-12T13:16:06.693Z,991.69
2019-03-12T13:18:06.402Z,991.68
2019-03-12T13:20:06.596Z,992.09
2019-03-12T13:22:06.666Z,991.81
2019-03-12T13:24:07.093Z,991.76
2019-03-12T13:26:06.595Z,991.36
2019-03-12T13:28:06.478Z,991.64
2019-03-12T13:30:06.817Z,991.65
2019-03-12T13:32:13.355Z,991.48
2019-03-12T13:34:06.833Z,991.20
2019-03-12T13:36:06.751Z,991.55
2019-03-12T13:38:06.687Z,991.42
2019-03-12T13:40:06.676Z,991.27
2019-03-12T13:42:06.795Z,991.24
2019-03-12T13:44:06.752Z,990.96
2019-03-12T13:46:06.709Z,991.34
2019-03-12T13:48:06.815Z,991.16
2019-03-12T13:50:06.469Z,990.95
2019-03-12T13:52:06.719Z,990.84
2019-03-12T13:54:09.604Z,990.96
2019-03-12T13:56:06.702Z,990.85
2019-03-12T13:58:06.787Z,990.63
2019-03-12T14:00:06.685Z,991.01
2019-03-12T14:02:06.694Z,990.89
2019-03-12T14:04:10.634Z,990.86
2019-03-12T14:06:07.037Z,990.94
2019-03-12T14:08:06.833Z,990.74
2019-03-12T14:10:06.759Z,990.41
2019-03-12T14:12:06.720Z,990.48
2019-03-12T14:14:06.971Z,990.27
2019-03-12T14:16:06.784Z,990.71
2019-03-12T14:18:06.791Z,990.70
2019-03-12T14:20:06.843Z,990.39
2019-03-12T14:22:06.911Z,989.97
2019-03-12T14:24:06.664Z,990.00
2019-03-12T14:26:06.646Z,990.20
2019-03-12T14:28:06.489Z,989.90
2019-03-12T14:30:06.790Z,990.10
2019-03-12T14:32:07.076Z,989.75
2019-03-12T14:34:06.599Z,990.22
2019-03-12T14:36:06.895Z,990.04
2019-03-12T14:38:06.608Z,989.71
2019-03-12T14:40:06.720Z,989.59
2019-03-12T14:42:06.722Z,989.99
2019-03-12T14:44:06.599Z,989.99
2019-03-12T14:46:06.845Z,989.65
2019-03-12T14:48:06.874Z,989.53
2019-03-12T14:50:06.764Z,989.49
2019-03-12T14:52:06.608Z,989.08
2019-03-12T14:54:06.802Z,989.39
2019-03-12T14:56:06.697Z,989.02
2019-03-12T14:58:07.022Z,989.18
2019-03-12T15:00:06.857Z,988.99
2019-03-12T15:02:06.447Z,989.08
2019-03-12T15:04:06.862Z,988.59
2019-03-12T15:06:06.859Z,988.80
2019-03-12T15:08:06.772Z,988.60
2019-03-12T15:10:06.885Z,988.68
2019-03-12T15:12:07.139Z,988.56
2019-03-12T15:14:06.815Z,988.29
2019-03-12T15:16:06.825Z,988.65
2019-03-12T15:18:06.657Z,988.40
2019-03-12T15:20:06.845Z,988.32
2019-03-12T15:22:06.957Z,988.36
2019-03-12T15:24:06.767Z,988.21
2019-03-12T15:26:06.709Z,987.62
2019-03-12T15:28:06.997Z,987.64
2019-03-12T15:30:07.001Z,988.00
2019-03-12T15:32:06.811Z,988.12
2019-03-12T15:34:06.931Z,987.77
2019-03-12T15:36:06.877Z,987.73
2019-03-12T15:38:06.850Z,987.69
2019-03-12T15:40:06.745Z,987.64
2019-03-12T15:42:06.874Z,987.58
2019-03-12T15:44:06.797Z,987.60
2019-03-12T15:46:06.703Z,987.40
2019-03-12T15:48:06.805Z,987.41
2019-03-12T15:50:09.825Z,987.18
2019-03-12T15:52:06.616Z,986.96
2019-03-12T15:54:06.614Z,986.99
2019-03-12T15:56:06.853Z,987.30
2019-03-12T15:58:06.856Z,987.10
2019-03-12T16:00:06.838Z,987.21
2019-03-12T16:02:06.890Z,987.30
2019-03-12T16:04:06.897Z,987.07
2019-03-12T16:06:06.644Z,986.70
2019-03-12T16:08:06.721Z,986.68
2019-03-12T16:10:06.825Z,986.88
2019-03-12T16:12:06.983Z,986.56
2019-03-12T16:14:06.723Z,986.54
2019-03-12T16:16:06.863Z,986.56
2019-03-12T16:18:07.179Z,986.51
2019-03-12T16:20:06.885Z,986.31
2019-03-12T16:22:06.797Z,987.10
2019-03-12T16:24:06.832Z,986.43
2019-03-12T16:26:06.727Z,986.55
2019-03-12T16:28:06.837Z,986.50
2019-03-12T16:30:06.894Z,986.12
2019-03-12T16:32:07.183Z,986.00
2019-03-12T16:34:06.793Z,986.18
2019-03-12T16:36:06.891Z,986.57
2019-03-12T16:38:06.955Z,986.36
2019-03-12T16:40:07.000Z,986.12
2019-03-12T16:42:06.563Z,986.01
2019-03-12T16:44:06.927Z,985.68
2019-03-12T16:46:06.835Z,985.83
2019-03-12T16:48:06.841Z,986.05
2019-03-12T16:50:06.650Z,986.02
2019-03-12T16:52:06.965Z,985.67
2019-03-12T16:54:06.977Z,985.89
2019-03-12T16:56:06.911Z,986.01
2019-03-12T16:58:06.882Z,985.46
2019-03-12T17:00:08.382Z,985.64
2019-03-12T17:02:07.028Z,985.42
2019-03-12T17:04:07.033Z,985.37
2019-03-12T17:06:06.783Z,985.60
2019-03-12T17:08:06.727Z,984.97
2019-03-12T17:10:07.180Z,985.47
2019-03-12T17:12:07.225Z,985.49
2019-03-12T17:14:07.100Z,985.07
2019-03-12T17:16:06.907Z,985.23
2019-03-12T17:18:06.815Z,984.70
2019-03-12T17:20:07.546Z,984.94
2019-03-12T17:22:07.145Z,984.96
2019-03-12T17:24:06.950Z,984.60
2019-03-12T17:26:06.822Z,985.11
2019-03-12T17:28:06.972Z,984.78
2019-03-12T17:30:06.888Z,984.88
2019-03-12T17:32:06.994Z,984.81
2019-03-12T17:34:06.768Z,984.39
2019-03-12T17:36:07.016Z,984.92
2019-03-12T17:38:06.922Z,984.65
2019-03-12T17:40:06.813Z,984.90
2019-03-12T17:42:06.960Z,984.46
2019-03-12T17:44:06.969Z,984.75
2019-03-12T17:46:07.385Z,984.82
2019-03-12T17:48:06.994Z,984.52
2019-03-12T17:50:06.972Z,984.66
2019-03-12T17:52:06.803Z,984.52
2019-03-12T17:54:06.929Z,984.55
2019-03-12T17:56:07.340Z,984.34
2019-03-12T17:58:06.951Z,984.39
2019-03-12T18:00:08.368Z,984.28
2019-03-12T18:02:07.064Z,983.90
2019-03-12T18:04:07.384Z,984.10
2019-03-12T18:06:06.990Z,984.31
2019-03-12T18:08:07.415Z,984.18
2019-03-12T18:10:07.426Z,984.17
2019-03-12T18:12:07.346Z,983.98
2019-03-12T18:14:07.459Z,983.87
2019-03-12T18:16:07.042Z,984.13
2019-03-12T18:18:07.484Z,984.00
2019-03-12T18:20:07.384Z,983.61
2019-03-12T18:22:06.987Z,983.81
2019-03-12T18:24:07.317Z,983.55
2019-03-12T18:26:07.368Z,983.83
2019-03-12T18:28:07.730Z,983.51
2019-03-12T18:30:07.345Z,983.64
2019-03-12T18:32:07.347Z,983.30
2019-03-12T18:34:07.458Z,983.42
2019-03-12T18:36:07.476Z,983.39
2019-03-12T18:38:07.479Z,983.23
2019-03-12T18:40:07.496Z,983.18
2019-03-12T18:42:07.507Z,983.24
2019-03-12T18:44:07.723Z,983.43
2019-03-12T18:46:07.534Z,983.06
2019-03-12T18:48:07.333Z,983.14
2019-03-12T18:50:07.418Z,982.97
2019-03-12T18:52:07.422Z,982.98
2019-03-12T18:54:07.266Z,983.00
2019-03-12T18:56:07.384Z,982.92
2019-03-12T18:58:07.477Z,982.83
2019-03-12T19:00:07.414Z,982.36
2019-03-12T19:02:07.623Z,982.75
2019-03-12T19:04:07.437Z,982.82
2019-03-12T19:06:10.065Z,982.68
2019-03-12T19:08:07.553Z,982.54
2019-03-12T19:10:08.106Z,982.76
2019-03-12T19:12:07.371Z,982.13
2019-03-12T19:14:07.590Z,982.20
2019-03-12T19:16:07.297Z,982.41
2019-03-12T19:18:07.611Z,982.41
2019-03-12T19:20:07.417Z,982.41
2019-03-12T19:22:07.431Z,982.07
2019-03-12T19:24:07.545Z,981.99
2019-03-12T19:26:07.299Z,981.93
2019-03-12T19:28:07.577Z,982.36
2019-03-12T19:30:07.448Z,981.83
2019-03-12T19:32:07.495Z,982.07
2019-03-12T19:34:07.101Z,981.96
2019-03-12T19:36:07.198Z,981.84
2019-03-12T19:38:07.127Z,981.69
2019-03-12T19:40:07.544Z,981.98
2019-03-12T19:42:07.552Z,981.57
2019-03-12T19:44:07.364Z,982.04
2019-03-12T19:46:07.784Z,981.25
2019-03-12T19:48:07.588Z,981.71
2019-03-12T19:50:07.482Z,981.72
2019-03-12T19:52:07.812Z,981.66
2019-03-12T19:54:07.411Z,981.21
2019-03-12T19:56:07.323Z,981.03
2019-03-12T19:58:07.482Z,981.28
2019-03-12T20:00:07.420Z,981.27
2019-03-12T20:02:15.972Z,981.43
2019-03-12T20:04:07.517Z,981.10
2019-03-12T20:06:07.516Z,980.99
2019-03-12T20:08:07.495Z,981.22
2019-03-12T20:10:07.509Z,981.07
2019-03-12T20:12:07.319Z,980.66
2019-03-12T20:14:07.537Z,980.72
2019-03-12T20:16:07.498Z,980.63
2019-03-12T20:18:07.554Z,980.87
2019-03-12T20:20:07.468Z,980.46
2019-03-12T20:22:07.481Z,980.87
2019-03-12T20:24:07.384Z,980.55
2019-03-12T20:26:07.011Z,980.54
2019-03-12T20:28:07.510Z,980.62
2019-03-12T20:30:07.429Z,980.42
2019-03-12T20:32:07.063Z,980.18
2019-03-12T20:34:07.466Z,980.39
2019-03-12T20:36:07.075Z,980.39
2019-03-12T20:38:07.272Z,980.01
2019-03-12T20:40:07.369Z,980.28
2019-03-12T20:42:07.484Z,980.32
2019-03-12T20:44:07.199Z,979.86
2019-03-12T20:46:09.127Z,980.47
2019-03-12T20:48:07.532Z,980.22
2019-03-12T20:50:07.126Z,980.26
2019-03-12T20:52:07.343Z,980.12
2019-03-12T20:54:07.159Z,979.88
2019-03-12T20:56:07.155Z,979.63
2019-03-12T20:58:07.489Z,979.34
2019-03-12T21:00:07.492Z,979.93
2019-03-12T21:02:07.719Z,979.64
2019-03-12T21:04:07.524Z,979.58
2019-03-12T21:06:07.533Z,979.57
2019-03-12T21:08:07.419Z,979.80
2019-03-12T21:10:07.668Z,979.55
2019-03-12T21:12:07.597Z,979.43
2019-03-12T21:14:07.463Z,979.64
2019-03-12T21:16:07.385Z,979.28
2019-03-12T21:18:07.390Z,979.26
2019-03-12T21:20:08.576Z,979.58
2019-03-12T21:22:07.220Z,979.16
2019-03-12T21:24:07.234Z,979.40
2019-03-12T21:26:07.468Z,979.20
2019-03-12T21:28:07.041Z,979.16
2019-03-12T21:30:07.662Z,979.13
2019-03-12T21:32:07.268Z,979.22
2019-03-12T21:34:07.184Z,979.26
2019-03-12T21:36:08.444Z,979.13
2019-03-12T21:38:08.229Z,979.13
2019-03-12T21:40:07.215Z,979.19
2019-03-12T21:42:07.249Z,978.83
2019-03-12T21:44:07.086Z,979.50
2019-03-12T21:46:07.038Z,979.17
2019-03-12T21:48:07.176Z,978.89
2019-03-12T21:50:07.373Z,979.25
2019-03-12T21:52:07.188Z,979.36
2019-03-12T21:54:07.185Z,979.17
2019-03-12T21:56:07.137Z,978.98
2019-03-12T21:58:07.217Z,978.74
2019-03-12T22:00:07.237Z,978.93
2019-03-12T22:02:07.237Z,978.87
2019-03-12T22:04:07.180Z,978.96
2019-03-12T22:06:07.257Z,979.14
2019-03-12T22:08:07.179Z,979.04
2019-03-12T22:10:07.194Z,979.23
2019-03-12T22:12:07.497Z,978.48
2019-03-12T22:14:07.138Z,978.72
2019-03-12T22:16:07.214Z,978.58
2019-03-12T22:18:07.157Z,978.95
2019-03-12T22:20:07.345Z,978.97
2019-03-12T22:22:07.252Z,978.63
2019-03-12T22:24:07.276Z,979.01
2019-03-12T22:26:06.967Z,978.86
2019-03-12T22:28:07.383Z,978.89
2019-03-12T22:30:07.299Z,978.58
2019-03-12T22:32:07.152Z,978.68
2019-03-12T22:34:07.202Z,979.03
2019-03-12T22:36:07.134Z,978.69
2019-03-12T22:38:07.347Z,978.80
2019-03-12T22:40:07.362Z,978.78
2019-03-12T22:42:07.224Z,978.80
2019-03-12T22:44:07.322Z,978.84
2019-03-12T22:46:09.924Z,978.85
2019-03-12T22:48:07.200Z,979.29
2019-03-12T22:50:06.966Z,978.99
2019-03-12T22:52:07.026Z,979.09
2019-03-12T22:54:07.165Z,979.20
2019-03-12T22:56:08.065Z,978.97
2019-03-12T22:58:07.265Z,978.80
2019-03-12T23:00:07.172Z,978.92
2019-03-12T23:02:07.403Z,978.84
2019-03-12T23:04:07.190Z,979.14
2019-03-12T23:06:07.086Z,978.97
2019-03-12T23:08:07.204Z,979.32
2019-03-12T23:10:07.330Z,978.99
2019-03-12T23:12:07.436Z,979.38
2019-03-12T23:14:07.251Z,979.21
2019-03-12T23:16:07.671Z,979.15
2019-03-12T23:18:07.476Z,979.39
2019-03-12T23:20:07.282Z,979.40
2019-03-12T23:22:07.213Z,979.43
2019-03-12T23:24:07.309Z,979.35
2019-03-12T23:26:07.389Z,979.44
2019-03-12T23:28:07.223Z,979.45
2019-03-12T23:30:07.212Z,979.99
2019-03-12T23:32:07.554Z,979.80
2019-03-12T23:34:07.464Z,980.01
2019-03-12T23:36:07.268Z,980.44
2019-03-12T23:38:07.209Z,980.42
2019-03-12T23:40:07.306Z,980.45
2019-03-12T23:42:07.125Z,980.31
2019-03-12T23:44:07.422Z,981.02
2019-03-12T23:46:07.669Z,980.95
2019-03-12T23:48:07.336Z,980.52
2019-03-12T23:50:07.183Z,980.61
2019-03-12T23:52:07.229Z,981.02
2019-03-12T23:54:07.276Z,980.42
2019-03-12T23:56:07.288Z,980.82
2019-03-12T23:58:07.205Z,980.64
